TFX91 YBBN-YSNF
Flight info
| Callsign | TFX91 |
|---|---|
| Flight time | 1h 47m |
| Altitude | 37000 |
| Route | GUMKI Y98 BONEY G329 DALOS |
| Aircraft | B738/M-SDE2E3FGHIRWXY/LB1 |
Departure
| Time | 2026-05-07 20:28 |
|---|---|
| Airport | Brisbane International Airport (YBBN) |
Arrival
| Time | 2026-05-07 22:15 |
|---|---|
| Airport | Norfolk Island International Airport (YSNF) |
| Time | Latitude | Longitude | Altitude | Speed | Heading |
|---|---|---|---|---|---|
| 2026-05-07 19:58 | -27.39925 | 153.11223 | 17 ft | 0 kts | 121° |
| 2026-05-07 20:15 | -27.39921 | 153.11216 | 17 ft | 4 kts | 118° |
| 2026-05-07 20:16 | -27.39914 | 153.11198 | 17 ft | 4 kts | 105° |
| 2026-05-07 20:16 | -27.39908 | 153.11170 | 17 ft | 2 kts | 102° |
| 2026-05-07 20:16 | -27.39907 | 153.11165 | 17 ft | 0 kts | 102° |
| 2026-05-07 20:20 | -27.39885 | 153.11173 | 17 ft | 7 kts | 356° |
| 2026-05-07 20:20 | -27.39810 | 153.11179 | 17 ft | 14 kts | 20° |
| 2026-05-07 20:20 | -27.39718 | 153.11252 | 17 ft | 18 kts | 61° |
| 2026-05-07 20:20 | -27.39742 | 153.11377 | 17 ft | 17 kts | 117° |
| 2026-05-07 20:21 | -27.39788 | 153.11476 | 17 ft | 2 kts | 117° |
| 2026-05-07 20:22 | -27.39793 | 153.11486 | 17 ft | 7 kts | 117° |
| 2026-05-07 20:22 | -27.39837 | 153.11581 | 17 ft | 17 kts | 117° |
| 2026-05-07 20:22 | -27.39845 | 153.11702 | 19 ft | 17 kts | 43° |
| 2026-05-07 20:23 | -27.39744 | 153.11763 | 17 ft | 16 kts | 26° |
| 2026-05-07 20:23 | -27.39644 | 153.11820 | 17 ft | 16 kts | 27° |
| 2026-05-07 20:23 | -27.39549 | 153.11874 | 17 ft | 15 kts | 27° |
| 2026-05-07 20:23 | -27.39509 | 153.11966 | 17 ft | 15 kts | 103° |
| 2026-05-07 20:24 | -27.39469 | 153.12058 | 19 ft | 14 kts | 26° |
| 2026-05-07 20:24 | -27.39381 | 153.12109 | 17 ft | 15 kts | 27° |
| 2026-05-07 20:24 | -27.39275 | 153.12170 | 18 ft | 19 kts | 27° |
| 2026-05-07 20:24 | -27.39142 | 153.12245 | 17 ft | 23 kts | 26° |
| 2026-05-07 20:25 | -27.38986 | 153.12334 | 18 ft | 27 kts | 27° |
| 2026-05-07 20:25 | -27.38816 | 153.12431 | 18 ft | 28 kts | 26° |
| 2026-05-07 20:25 | -27.38649 | 153.12527 | 17 ft | 26 kts | 28° |
| 2026-05-07 20:25 | -27.38491 | 153.12617 | 18 ft | 25 kts | 26° |
| 2026-05-07 20:26 | -27.38343 | 153.12702 | 19 ft | 23 kts | 27° |
| 2026-05-07 20:26 | -27.38204 | 153.12781 | 17 ft | 22 kts | 27° |
| 2026-05-07 20:26 | -27.38074 | 153.12857 | 17 ft | 18 kts | 32° |
| 2026-05-07 20:26 | -27.38066 | 153.12976 | 18 ft | 17 kts | 117° |
| 2026-05-07 20:27 | -27.38120 | 153.13052 | 19 ft | 10 kts | 186° |
| 2026-05-07 20:27 | -27.38137 | 153.13044 | 19 ft | 0 kts | 205° |
| 2026-05-07 20:27 | -27.38333 | 153.12934 | 21 ft | 67 kts | 207° |
| 2026-05-07 20:27 | -27.38955 | 153.12581 | 17 ft | 130 kts | 207° |
| 2026-05-07 20:28 | -27.39899 | 153.12044 | 229 ft | 163 kts | 208° |
| 2026-05-07 20:28 | -27.40892 | 153.11483 | 1024 ft | 160 kts | 208° |
| 2026-05-07 20:28 | -27.41906 | 153.10961 | 1743 ft | 159 kts | 192° |
| 2026-05-07 20:28 | -27.43047 | 153.11165 | 2161 ft | 182 kts | 152° |
| 2026-05-07 20:29 | -27.44221 | 153.11880 | 2402 ft | 205 kts | 154° |
| 2026-05-07 20:29 | -27.45528 | 153.12616 | 2882 ft | 214 kts | 154° |
| 2026-05-07 20:29 | -27.46879 | 153.13377 | 3463 ft | 220 kts | 154° |
| 2026-05-07 20:29 | -27.48257 | 153.14155 | 4199 ft | 222 kts | 154° |
| 2026-05-07 20:30 | -27.49608 | 153.15061 | 4647 ft | 239 kts | 136° |
| 2026-05-07 20:30 | -27.50389 | 153.16790 | 4932 ft | 264 kts | 98° |
| 2026-05-07 20:30 | -27.50103 | 153.18869 | 5476 ft | 278 kts | 69° |
| 2026-05-07 20:30 | -27.49249 | 153.20852 | 6120 ft | 285 kts | 63° |
| 2026-05-07 20:31 | -27.48296 | 153.22841 | 6754 ft | 291 kts | 62° |
| 2026-05-07 20:31 | -27.47331 | 153.24825 | 7406 ft | 294 kts | 62° |
| 2026-05-07 20:31 | -27.46337 | 153.26884 | 8079 ft | 298 kts | 62° |
| 2026-05-07 20:31 | -27.45357 | 153.28935 | 8736 ft | 302 kts | 62° |
| 2026-05-07 20:32 | -27.44362 | 153.31035 | 9385 ft | 306 kts | 62° |
| 2026-05-07 20:32 | -27.43357 | 153.33171 | 10044 ft | 310 kts | 62° |
| 2026-05-07 20:32 | -27.42340 | 153.35342 | 10513 ft | 321 kts | 63° |
| 2026-05-07 20:32 | -27.41266 | 153.37641 | 10685 ft | 341 kts | 63° |
| 2026-05-07 20:33 | -27.40147 | 153.40042 | 11146 ft | 349 kts | 63° |
| 2026-05-07 20:33 | -27.39014 | 153.42474 | 11767 ft | 352 kts | 63° |
| 2026-05-07 20:33 | -27.37882 | 153.44902 | 12399 ft | 355 kts | 63° |
| 2026-05-07 20:33 | -27.36730 | 153.47374 | 13003 ft | 360 kts | 63° |
| 2026-05-07 20:34 | -27.35560 | 153.49885 | 13656 ft | 363 kts | 63° |
| 2026-05-07 20:34 | -27.34376 | 153.52422 | 14302 ft | 366 kts | 62° |
| 2026-05-07 20:34 | -27.33184 | 153.54977 | 14909 ft | 370 kts | 62° |
| 2026-05-07 20:34 | -27.31999 | 153.57515 | 15516 ft | 373 kts | 62° |
| 2026-05-07 20:35 | -27.30782 | 153.60119 | 16137 ft | 377 kts | 61° |
| 2026-05-07 20:35 | -27.29554 | 153.62745 | 16747 ft | 380 kts | 61° |
| 2026-05-07 20:35 | -27.28314 | 153.65397 | 17363 ft | 384 kts | 60° |
| 2026-05-07 20:35 | -27.27060 | 153.68075 | 17962 ft | 388 kts | 60° |
| 2026-05-07 20:36 | -27.25807 | 153.70750 | 18546 ft | 392 kts | 60° |
| 2026-05-07 20:36 | -27.24533 | 153.73469 | 19028 ft | 397 kts | 59° |
| 2026-05-07 20:36 | -27.23234 | 153.76239 | 19473 ft | 403 kts | 59° |
| 2026-05-07 20:36 | -27.21919 | 153.79042 | 19910 ft | 408 kts | 58° |
| 2026-05-07 20:37 | -27.20582 | 153.81893 | 20373 ft | 413 kts | 59° |
| 2026-05-07 20:37 | -27.19593 | 153.84964 | 20783 ft | 426 kts | 78° |
| 2026-05-07 20:37 | -27.19500 | 153.88318 | 21222 ft | 434 kts | 98° |
| 2026-05-07 20:37 | -27.20286 | 153.91594 | 21671 ft | 437 kts | 111° |
| 2026-05-07 20:38 | -27.21310 | 153.94790 | 22089 ft | 442 kts | 111° |
| 2026-05-07 20:38 | -27.22377 | 153.98053 | 22480 ft | 448 kts | 112° |
| 2026-05-07 20:38 | -27.23458 | 154.01375 | 22889 ft | 453 kts | 111° |
| 2026-05-07 20:38 | -27.24533 | 154.04725 | 23307 ft | 458 kts | 111° |
| 2026-05-07 20:39 | -27.25609 | 154.08121 | 23666 ft | 464 kts | 111° |
| 2026-05-07 20:39 | -27.26689 | 154.11573 | 23992 ft | 469 kts | 111° |
| 2026-05-07 20:39 | -27.27757 | 154.15008 | 24371 ft | 472 kts | 111° |
| 2026-05-07 20:39 | -27.28839 | 154.18508 | 24755 ft | 476 kts | 110° |
| 2026-05-07 20:40 | -27.29928 | 154.22035 | 25098 ft | 480 kts | 110° |
| 2026-05-07 20:40 | -27.31029 | 154.25609 | 25437 ft | 484 kts | 110° |
| 2026-05-07 20:40 | -27.32131 | 154.29187 | 25819 ft | 487 kts | 110° |
| 2026-05-07 20:40 | -27.33240 | 154.32789 | 26230 ft | 488 kts | 110° |
| 2026-05-07 20:41 | -27.34357 | 154.36419 | 26565 ft | 492 kts | 110° |
| 2026-05-07 20:41 | -27.35487 | 154.40093 | 26834 ft | 497 kts | 110° |
| 2026-05-07 20:41 | -27.36606 | 154.43737 | 27130 ft | 501 kts | 110° |
| 2026-05-07 20:41 | -27.37750 | 154.47464 | 27457 ft | 504 kts | 110° |
| 2026-05-07 20:42 | -27.38903 | 154.51224 | 27772 ft | 508 kts | 110° |
| 2026-05-07 20:42 | -27.40057 | 154.54994 | 28074 ft | 511 kts | 110° |
| 2026-05-07 20:42 | -27.41223 | 154.58807 | 28368 ft | 515 kts | 110° |
| 2026-05-07 20:42 | -27.42392 | 154.62631 | 28661 ft | 518 kts | 110° |
| 2026-05-07 20:43 | -27.43551 | 154.66429 | 28951 ft | 522 kts | 110° |
| 2026-05-07 20:43 | -27.44731 | 154.70302 | 29250 ft | 525 kts | 110° |
| 2026-05-07 20:43 | -27.45919 | 154.74202 | 29522 ft | 528 kts | 110° |
| 2026-05-07 20:43 | -27.47113 | 154.78127 | 29796 ft | 531 kts | 110° |
| 2026-05-07 20:44 | -27.48318 | 154.82094 | 30075 ft | 535 kts | 110° |
| 2026-05-07 20:44 | -27.49526 | 154.86077 | 30309 ft | 538 kts | 110° |
| 2026-05-07 20:44 | -27.50737 | 154.90071 | 30549 ft | 540 kts | 110° |
| 2026-05-07 20:44 | -27.51951 | 154.94082 | 30804 ft | 542 kts | 110° |
| 2026-05-07 20:45 | -27.53155 | 154.98063 | 31034 ft | 544 kts | 110° |
| 2026-05-07 20:45 | -27.54376 | 155.02106 | 31236 ft | 547 kts | 110° |
| 2026-05-07 20:45 | -27.55606 | 155.06183 | 31430 ft | 550 kts | 110° |
| 2026-05-07 20:45 | -27.56843 | 155.10288 | 31650 ft | 552 kts | 110° |
| 2026-05-07 20:46 | -27.58077 | 155.14388 | 31880 ft | 553 kts | 110° |
| 2026-05-07 20:46 | -27.59313 | 155.18501 | 32107 ft | 555 kts | 110° |
| 2026-05-07 20:46 | -27.60538 | 155.22582 | 32297 ft | 557 kts | 110° |
| 2026-05-07 20:46 | -27.61777 | 155.26714 | 32517 ft | 558 kts | 110° |
| 2026-05-07 20:47 | -27.63020 | 155.30862 | 32785 ft | 558 kts | 110° |
| 2026-05-07 20:47 | -27.64265 | 155.35026 | 33096 ft | 557 kts | 110° |
| 2026-05-07 20:47 | -27.65499 | 155.39157 | 33390 ft | 557 kts | 110° |
| 2026-05-07 20:47 | -27.66739 | 155.43314 | 33634 ft | 557 kts | 110° |
| 2026-05-07 20:48 | -27.67975 | 155.47459 | 33882 ft | 558 kts | 110° |
| 2026-05-07 20:48 | -27.69210 | 155.51606 | 34130 ft | 558 kts | 110° |
| 2026-05-07 20:48 | -27.70445 | 155.55762 | 34362 ft | 557 kts | 110° |
| 2026-05-07 20:48 | -27.71676 | 155.59909 | 34587 ft | 557 kts | 110° |
| 2026-05-07 20:49 | -27.72906 | 155.64056 | 34769 ft | 557 kts | 110° |
| 2026-05-07 20:49 | -27.74120 | 155.68154 | 34950 ft | 558 kts | 110° |
| 2026-05-07 20:49 | -27.75355 | 155.72328 | 35162 ft | 558 kts | 110° |
| 2026-05-07 20:49 | -27.76585 | 155.76492 | 35360 ft | 558 kts | 110° |
| 2026-05-07 20:50 | -27.77814 | 155.80657 | 35568 ft | 558 kts | 110° |
| 2026-05-07 20:50 | -27.79040 | 155.84814 | 35748 ft | 558 kts | 110° |
| 2026-05-07 20:50 | -27.80264 | 155.88976 | 35932 ft | 558 kts | 109° |
| 2026-05-07 20:50 | -27.81315 | 155.93199 | 36117 ft | 559 kts | 101° |
| 2026-05-07 20:51 | -27.82028 | 155.97516 | 36286 ft | 559 kts | 98° |
| 2026-05-07 20:51 | -27.82641 | 156.01855 | 36445 ft | 560 kts | 97° |
| 2026-05-07 20:51 | -27.83209 | 156.06144 | 36622 ft | 559 kts | 97° |
| 2026-05-07 20:51 | -27.83787 | 156.10500 | 36813 ft | 559 kts | 97° |
| 2026-05-07 20:52 | -27.84378 | 156.14832 | 36984 ft | 559 kts | 98° |
| 2026-05-07 20:52 | -27.84990 | 156.19174 | 37106 ft | 560 kts | 98° |
| 2026-05-07 20:52 | -27.85619 | 156.23529 | 37104 ft | 563 kts | 98° |
| 2026-05-07 20:53 | -27.86901 | 156.32259 | 37100 ft | 561 kts | 98° |
| 2026-05-07 20:53 | -27.88180 | 156.40971 | 37095 ft | 559 kts | 98° |
| 2026-05-07 20:54 | -27.89432 | 156.49583 | 37097 ft | 557 kts | 98° |
| 2026-05-07 20:54 | -27.90678 | 156.58228 | 37105 ft | 555 kts | 98° |
| 2026-05-07 20:55 | -27.91914 | 156.66843 | 37095 ft | 555 kts | 98° |
| 2026-05-07 20:55 | -27.93141 | 156.75433 | 37095 ft | 555 kts | 98° |
| 2026-05-07 20:56 | -27.94372 | 156.84086 | 37098 ft | 557 kts | 98° |
| 2026-05-07 20:56 | -27.95601 | 156.92763 | 37088 ft | 558 kts | 98° |
| 2026-05-07 20:57 | -27.96819 | 157.01400 | 37094 ft | 560 kts | 98° |
| 2026-05-07 20:57 | -27.98043 | 157.10123 | 37094 ft | 562 kts | 98° |
| 2026-05-07 20:58 | -27.99264 | 157.18871 | 37090 ft | 563 kts | 98° |
| 2026-05-07 20:58 | -28.00483 | 157.27644 | 37088 ft | 564 kts | 98° |
| 2026-05-07 20:59 | -28.01691 | 157.36373 | 37085 ft | 565 kts | 98° |
| 2026-05-07 20:59 | -28.02900 | 157.45158 | 37080 ft | 565 kts | 98° |
| 2026-05-07 21:00 | -28.04103 | 157.53939 | 37079 ft | 564 kts | 98° |
| 2026-05-07 21:00 | -28.05299 | 157.62714 | 37078 ft | 564 kts | 98° |
| 2026-05-07 21:01 | -28.06488 | 157.71477 | 37082 ft | 563 kts | 98° |
| 2026-05-07 21:01 | -28.07670 | 157.80239 | 37076 ft | 562 kts | 98° |
| 2026-05-07 21:02 | -28.08845 | 157.88982 | 37079 ft | 561 kts | 98° |
| 2026-05-07 21:02 | -28.09816 | 157.96247 | 37073 ft | 561 kts | 98° |
| 2026-05-07 21:03 | -28.10979 | 158.04987 | 37076 ft | 560 kts | 97° |
| 2026-05-07 21:03 | -28.12128 | 158.13664 | 37076 ft | 560 kts | 97° |
| 2026-05-07 21:04 | -28.13278 | 158.22388 | 37068 ft | 560 kts | 97° |
| 2026-05-07 21:04 | -28.14422 | 158.31114 | 37074 ft | 560 kts | 97° |
| 2026-05-07 21:05 | -28.15563 | 158.39857 | 37074 ft | 560 kts | 97° |
| 2026-05-07 21:05 | -28.16698 | 158.48602 | 37076 ft | 560 kts | 97° |
| 2026-05-07 21:06 | -28.17828 | 158.57356 | 37074 ft | 561 kts | 97° |
| 2026-05-07 21:06 | -28.18945 | 158.66051 | 37072 ft | 561 kts | 97° |
| 2026-05-07 21:07 | -28.20068 | 158.74834 | 37070 ft | 562 kts | 97° |
| 2026-05-07 21:07 | -28.21183 | 158.83607 | 37068 ft | 562 kts | 97° |
| 2026-05-07 21:08 | -28.22289 | 158.92349 | 37067 ft | 563 kts | 97° |
| 2026-05-07 21:08 | -28.23394 | 159.01136 | 37065 ft | 563 kts | 97° |
| 2026-05-07 21:09 | -28.24497 | 159.09947 | 37063 ft | 563 kts | 97° |
| 2026-05-07 21:09 | -28.25594 | 159.18750 | 37059 ft | 563 kts | 97° |
| 2026-05-07 21:10 | -28.26681 | 159.27553 | 37055 ft | 563 kts | 97° |
| 2026-05-07 21:10 | -28.27761 | 159.36353 | 37060 ft | 562 kts | 97° |
| 2026-05-07 21:11 | -28.28827 | 159.45092 | 37056 ft | 562 kts | 97° |
| 2026-05-07 21:11 | -28.30427 | 159.58279 | 37052 ft | 562 kts | 97° |
| 2026-05-07 21:12 | -28.31479 | 159.67012 | 37053 ft | 562 kts | 97° |
| 2026-05-07 21:12 | -28.32532 | 159.75802 | 37055 ft | 561 kts | 97° |
| 2026-05-07 21:13 | -28.33579 | 159.84591 | 37051 ft | 561 kts | 97° |
| 2026-05-07 21:13 | -28.34622 | 159.93389 | 37049 ft | 561 kts | 97° |
| 2026-05-07 21:14 | -28.35656 | 160.02165 | 37050 ft | 561 kts | 97° |
| 2026-05-07 21:14 | -28.36684 | 160.10943 | 37046 ft | 561 kts | 97° |
| 2026-05-07 21:15 | -28.37706 | 160.19721 | 37048 ft | 561 kts | 97° |
| 2026-05-07 21:15 | -28.38719 | 160.28460 | 37050 ft | 561 kts | 97° |
| 2026-05-07 21:16 | -28.39731 | 160.37250 | 37047 ft | 561 kts | 96° |
| 2026-05-07 21:16 | -28.40737 | 160.46033 | 37046 ft | 561 kts | 96° |
| 2026-05-07 21:17 | -28.41738 | 160.54828 | 37043 ft | 561 kts | 96° |
| 2026-05-07 21:17 | -28.42734 | 160.63626 | 37042 ft | 561 kts | 96° |
| 2026-05-07 21:18 | -28.43716 | 160.72360 | 37043 ft | 561 kts | 96° |
| 2026-05-07 21:18 | -28.44700 | 160.81158 | 37039 ft | 561 kts | 96° |
| 2026-05-07 21:19 | -28.45679 | 160.89961 | 37041 ft | 561 kts | 96° |
| 2026-05-07 21:19 | -28.46652 | 160.98765 | 37042 ft | 561 kts | 96° |
| 2026-05-07 21:20 | -28.47621 | 161.07583 | 37034 ft | 562 kts | 96° |
| 2026-05-07 21:20 | -28.48585 | 161.16412 | 37034 ft | 562 kts | 96° |
| 2026-05-07 21:21 | -28.49537 | 161.25189 | 37023 ft | 561 kts | 96° |
| 2026-05-07 21:21 | -28.50487 | 161.33995 | 37033 ft | 561 kts | 96° |
| 2026-05-07 21:22 | -28.51428 | 161.42767 | 37030 ft | 562 kts | 96° |
| 2026-05-07 21:22 | -28.52367 | 161.51586 | 37033 ft | 562 kts | 96° |
| 2026-05-07 21:23 | -28.53303 | 161.60423 | 37029 ft | 562 kts | 96° |
| 2026-05-07 21:23 | -28.54232 | 161.69256 | 37032 ft | 563 kts | 96° |
| 2026-05-07 21:24 | -28.55157 | 161.78106 | 37030 ft | 563 kts | 96° |
| 2026-05-07 21:24 | -28.56072 | 161.86911 | 37028 ft | 563 kts | 96° |
| 2026-05-07 21:25 | -28.56990 | 161.95806 | 37032 ft | 563 kts | 96° |
| 2026-05-07 21:25 | -28.57892 | 162.04600 | 37029 ft | 563 kts | 96° |
| 2026-05-07 21:26 | -28.58793 | 162.13442 | 37024 ft | 562 kts | 96° |
| 2026-05-07 21:26 | -28.59690 | 162.22312 | 37024 ft | 562 kts | 96° |
| 2026-05-07 21:27 | -28.60579 | 162.31155 | 37016 ft | 561 kts | 96° |
| 2026-05-07 21:27 | -28.61456 | 162.39931 | 37031 ft | 561 kts | 96° |
| 2026-05-07 21:28 | -28.62333 | 162.48765 | 37012 ft | 561 kts | 96° |
| 2026-05-07 21:28 | -28.63203 | 162.57596 | 37017 ft | 560 kts | 96° |
| 2026-05-07 21:29 | -28.64065 | 162.66407 | 37026 ft | 560 kts | 96° |
| 2026-05-07 21:29 | -28.64918 | 162.75173 | 37021 ft | 559 kts | 96° |
| 2026-05-07 21:30 | -28.65770 | 162.83997 | 37010 ft | 559 kts | 96° |
| 2026-05-07 21:30 | -28.66615 | 162.92805 | 37021 ft | 559 kts | 96° |
| 2026-05-07 21:31 | -28.67449 | 163.01559 | 37009 ft | 558 kts | 96° |
| 2026-05-07 21:31 | -28.68278 | 163.10355 | 37009 ft | 558 kts | 96° |
| 2026-05-07 21:32 | -28.69098 | 163.19143 | 37024 ft | 558 kts | 96° |
| 2026-05-07 21:32 | -28.69914 | 163.27940 | 37008 ft | 558 kts | 96° |
| 2026-05-07 21:33 | -28.70724 | 163.36728 | 37019 ft | 557 kts | 96° |
| 2026-05-07 21:33 | -28.71522 | 163.45450 | 37008 ft | 556 kts | 96° |
| 2026-05-07 21:34 | -28.72318 | 163.54213 | 37013 ft | 556 kts | 96° |
| 2026-05-07 21:34 | -28.73109 | 163.62981 | 37011 ft | 556 kts | 96° |
| 2026-05-07 21:35 | -28.73893 | 163.71747 | 37017 ft | 555 kts | 96° |
| 2026-05-07 21:35 | -28.74672 | 163.80510 | 37000 ft | 555 kts | 96° |
| 2026-05-07 21:36 | -28.75444 | 163.89263 | 37013 ft | 555 kts | 96° |
| 2026-05-07 21:36 | -28.76205 | 163.97955 | 37008 ft | 555 kts | 96° |
| 2026-05-07 21:37 | -28.76966 | 164.06713 | 36998 ft | 554 kts | 96° |
| 2026-05-07 21:37 | -28.77721 | 164.15469 | 37010 ft | 554 kts | 96° |
| 2026-05-07 21:38 | -28.78470 | 164.24221 | 37007 ft | 554 kts | 96° |
| 2026-05-07 21:38 | -28.79213 | 164.32969 | 37002 ft | 554 kts | 96° |
| 2026-05-07 21:39 | -28.79951 | 164.41721 | 37011 ft | 555 kts | 96° |
| 2026-05-07 21:39 | -28.80680 | 164.50438 | 37004 ft | 555 kts | 96° |
| 2026-05-07 21:40 | -28.81406 | 164.59197 | 37010 ft | 555 kts | 96° |
| 2026-05-07 21:40 | -28.82127 | 164.67958 | 37011 ft | 555 kts | 95° |
| 2026-05-07 21:41 | -28.82486 | 164.72343 | 36833 ft | 558 kts | 95° |
| 2026-05-07 21:41 | -28.82847 | 164.76774 | 36360 ft | 560 kts | 95° |
| 2026-05-07 21:41 | -28.83204 | 164.81169 | 35986 ft | 554 kts | 95° |
| 2026-05-07 21:41 | -28.83552 | 164.85478 | 35597 ft | 550 kts | 95° |
| 2026-05-07 21:42 | -28.83901 | 164.89813 | 35188 ft | 546 kts | 95° |
| 2026-05-07 21:42 | -28.84245 | 164.94110 | 34794 ft | 542 kts | 95° |
| 2026-05-07 21:42 | -28.84587 | 164.98389 | 34398 ft | 539 kts | 95° |
| 2026-05-07 21:42 | -28.84925 | 165.02633 | 33981 ft | 536 kts | 95° |
| 2026-05-07 21:43 | -28.85260 | 165.06863 | 33526 ft | 533 kts | 95° |
| 2026-05-07 21:43 | -28.85592 | 165.11064 | 33081 ft | 528 kts | 95° |
| 2026-05-07 21:43 | -28.85918 | 165.15215 | 32700 ft | 523 kts | 95° |
| 2026-05-07 21:43 | -28.86237 | 165.19289 | 32303 ft | 519 kts | 94° |
| 2026-05-07 21:44 | -28.86556 | 165.23378 | 31917 ft | 515 kts | 94° |
| 2026-05-07 21:44 | -28.86872 | 165.27437 | 31527 ft | 512 kts | 94° |
| 2026-05-07 21:44 | -28.87184 | 165.31467 | 31154 ft | 508 kts | 94° |
| 2026-05-07 21:44 | -28.87493 | 165.35476 | 30775 ft | 505 kts | 93° |
| 2026-05-07 21:45 | -28.87798 | 165.39450 | 30403 ft | 501 kts | 93° |
| 2026-05-07 21:45 | -28.88100 | 165.43401 | 30013 ft | 498 kts | 93° |
| 2026-05-07 21:45 | -28.88399 | 165.47334 | 29583 ft | 495 kts | 93° |
| 2026-05-07 21:45 | -28.88695 | 165.51238 | 29162 ft | 491 kts | 93° |
| 2026-05-07 21:46 | -28.88984 | 165.55059 | 28767 ft | 487 kts | 93° |
| 2026-05-07 21:46 | -28.89273 | 165.58890 | 28376 ft | 483 kts | 92° |
| 2026-05-07 21:46 | -28.89558 | 165.62691 | 27994 ft | 479 kts | 92° |
| 2026-05-07 21:46 | -28.89840 | 165.66469 | 27626 ft | 474 kts | 92° |
| 2026-05-07 21:47 | -28.90119 | 165.70215 | 27240 ft | 471 kts | 92° |
| 2026-05-07 21:47 | -28.90394 | 165.73926 | 26866 ft | 468 kts | 92° |
| 2026-05-07 21:47 | -28.90667 | 165.77613 | 26489 ft | 465 kts | 92° |
| 2026-05-07 21:47 | -28.90936 | 165.81274 | 26138 ft | 461 kts | 92° |
| 2026-05-07 21:48 | -28.91114 | 165.83680 | 25965 ft | 457 kts | 92° |
| 2026-05-07 21:48 | -28.91381 | 165.87269 | 25717 ft | 451 kts | 92° |
| 2026-05-07 21:48 | -28.91643 | 165.90810 | 25479 ft | 445 kts | 92° |
| 2026-05-07 21:48 | -28.91902 | 165.94308 | 25235 ft | 440 kts | 92° |
| 2026-05-07 21:49 | -28.92157 | 165.97769 | 25007 ft | 436 kts | 92° |
| 2026-05-07 21:49 | -28.92408 | 166.01210 | 24761 ft | 432 kts | 92° |
| 2026-05-07 21:49 | -28.92656 | 166.04611 | 24539 ft | 428 kts | 92° |
| 2026-05-07 21:49 | -28.92900 | 166.07969 | 24247 ft | 425 kts | 92° |
| 2026-05-07 21:50 | -28.93143 | 166.11345 | 23916 ft | 425 kts | 92° |
| 2026-05-07 21:50 | -28.93385 | 166.14715 | 23519 ft | 427 kts | 92° |
| 2026-05-07 21:50 | -28.93624 | 166.18054 | 23118 ft | 427 kts | 92° |
| 2026-05-07 21:50 | -28.93866 | 166.21436 | 22737 ft | 426 kts | 92° |
| 2026-05-07 21:51 | -28.94108 | 166.24818 | 22364 ft | 425 kts | 92° |
| 2026-05-07 21:51 | -28.94347 | 166.28179 | 21994 ft | 424 kts | 92° |
| 2026-05-07 21:51 | -28.94584 | 166.31527 | 21623 ft | 422 kts | 92° |
| 2026-05-07 21:51 | -28.94820 | 166.34856 | 21256 ft | 419 kts | 92° |
| 2026-05-07 21:52 | -28.95053 | 166.38165 | 20882 ft | 417 kts | 92° |
| 2026-05-07 21:52 | -28.95281 | 166.41420 | 20531 ft | 415 kts | 92° |
| 2026-05-07 21:52 | -28.95511 | 166.44699 | 20173 ft | 412 kts | 92° |
| 2026-05-07 21:52 | -28.95737 | 166.47956 | 19802 ft | 411 kts | 92° |
| 2026-05-07 21:53 | -28.95962 | 166.51204 | 19431 ft | 408 kts | 92° |
| 2026-05-07 21:53 | -28.96186 | 166.54436 | 19082 ft | 406 kts | 92° |
| 2026-05-07 21:53 | -28.96407 | 166.57645 | 18714 ft | 405 kts | 92° |
| 2026-05-07 21:53 | -28.96627 | 166.60847 | 18362 ft | 403 kts | 92° |
| 2026-05-07 21:54 | -28.96844 | 166.64030 | 17954 ft | 401 kts | 92° |
| 2026-05-07 21:54 | -28.97060 | 166.67193 | 17583 ft | 398 kts | 92° |
| 2026-05-07 21:54 | -28.97321 | 166.70340 | 17214 ft | 396 kts | 98° |
| 2026-05-07 21:54 | -28.97904 | 166.73401 | 16869 ft | 394 kts | 102° |
| 2026-05-07 21:55 | -28.98573 | 166.76379 | 16528 ft | 391 kts | 103° |
| 2026-05-07 21:55 | -28.99265 | 166.79369 | 16186 ft | 388 kts | 103° |
| 2026-05-07 21:55 | -28.99959 | 166.82342 | 15847 ft | 385 kts | 104° |
| 2026-05-07 21:55 | -29.00654 | 166.85292 | 15509 ft | 382 kts | 104° |
| 2026-05-07 21:56 | -29.01345 | 166.88210 | 15177 ft | 379 kts | 104° |
| 2026-05-07 21:56 | -29.02038 | 166.91118 | 14848 ft | 376 kts | 104° |
| 2026-05-07 21:56 | -29.02725 | 166.93988 | 14534 ft | 374 kts | 104° |
| 2026-05-07 21:56 | -29.03410 | 166.96839 | 14212 ft | 371 kts | 104° |
| 2026-05-07 21:57 | -29.04092 | 166.99676 | 13902 ft | 368 kts | 104° |
| 2026-05-07 21:57 | -29.04759 | 167.02449 | 13548 ft | 365 kts | 104° |
| 2026-05-07 21:57 | -29.05432 | 167.05239 | 13194 ft | 363 kts | 104° |
| 2026-05-07 21:57 | -29.06101 | 167.08013 | 12864 ft | 360 kts | 104° |
| 2026-05-07 21:58 | -29.06766 | 167.10757 | 12549 ft | 356 kts | 104° |
| 2026-05-07 21:58 | -29.07426 | 167.13471 | 12268 ft | 352 kts | 104° |
| 2026-05-07 21:58 | -29.08082 | 167.16159 | 11967 ft | 349 kts | 104° |
| 2026-05-07 21:58 | -29.08734 | 167.18826 | 11673 ft | 346 kts | 104° |
| 2026-05-07 21:59 | -29.09380 | 167.21461 | 11408 ft | 342 kts | 104° |
| 2026-05-07 21:59 | -29.10024 | 167.24078 | 11124 ft | 339 kts | 104° |
| 2026-05-07 21:59 | -29.10664 | 167.26655 | 10891 ft | 335 kts | 104° |
| 2026-05-07 21:59 | -29.11264 | 167.29175 | 10642 ft | 330 kts | 101° |
| 2026-05-07 22:00 | -29.11782 | 167.31714 | 10411 ft | 326 kts | 100° |
| 2026-05-07 22:00 | -29.12278 | 167.34223 | 10194 ft | 321 kts | 100° |
| 2026-05-07 22:00 | -29.12763 | 167.36690 | 10113 ft | 313 kts | 100° |
| 2026-05-07 22:00 | -29.13241 | 167.39129 | 10010 ft | 312 kts | 100° |
| 2026-05-07 22:01 | -29.13713 | 167.41555 | 9955 ft | 315 kts | 100° |
| 2026-05-07 22:01 | -29.14193 | 167.44035 | 9744 ft | 320 kts | 100° |
| 2026-05-07 22:01 | -29.14668 | 167.46496 | 9666 ft | 316 kts | 100° |
| 2026-05-07 22:01 | -29.15141 | 167.48946 | 9618 ft | 315 kts | 100° |
| 2026-05-07 22:02 | -29.15610 | 167.51368 | 9488 ft | 315 kts | 100° |
| 2026-05-07 22:02 | -29.16082 | 167.53805 | 9259 ft | 312 kts | 100° |
| 2026-05-07 22:02 | -29.16551 | 167.56234 | 8899 ft | 313 kts | 100° |
| 2026-05-07 22:02 | -29.17018 | 167.58667 | 8567 ft | 313 kts | 100° |
| 2026-05-07 22:03 | -29.17486 | 167.61094 | 8314 ft | 310 kts | 100° |
| 2026-05-07 22:03 | -29.17953 | 167.63489 | 8022 ft | 307 kts | 100° |
| 2026-05-07 22:03 | -29.18420 | 167.65868 | 7661 ft | 305 kts | 100° |
| 2026-05-07 22:03 | -29.18882 | 167.68225 | 7303 ft | 302 kts | 100° |
| 2026-05-07 22:04 | -29.19342 | 167.70564 | 6944 ft | 299 kts | 100° |
| 2026-05-07 22:04 | -29.19799 | 167.72878 | 6590 ft | 297 kts | 100° |
| 2026-05-07 22:04 | -29.20255 | 167.75175 | 6220 ft | 293 kts | 100° |
| 2026-05-07 22:04 | -29.20686 | 167.77421 | 5887 ft | 283 kts | 96° |
| 2026-05-07 22:05 | -29.20883 | 167.79615 | 5503 ft | 273 kts | 91° |
| 2026-05-07 22:05 | -29.21011 | 167.81721 | 5135 ft | 265 kts | 90° |
| 2026-05-07 22:05 | -29.21136 | 167.83802 | 4757 ft | 258 kts | 90° |
| 2026-05-07 22:05 | -29.21255 | 167.85826 | 4367 ft | 252 kts | 90° |
| 2026-05-07 22:06 | -29.21370 | 167.87805 | 3985 ft | 246 kts | 90° |
| 2026-05-07 22:06 | -29.21485 | 167.89740 | 3619 ft | 241 kts | 90° |
| 2026-05-07 22:06 | -29.21611 | 167.91637 | 3239 ft | 236 kts | 90° |
| 2026-05-07 22:06 | -29.21745 | 167.93494 | 2862 ft | 232 kts | 90° |
| 2026-05-07 22:07 | -29.21881 | 167.95318 | 2492 ft | 227 kts | 90° |
| 2026-05-07 22:07 | -29.22028 | 167.97076 | 2337 ft | 215 kts | 90° |
| 2026-05-07 22:07 | -29.22183 | 167.98702 | 2286 ft | 202 kts | 90° |
| 2026-05-07 22:07 | -29.22344 | 168.00301 | 2306 ft | 204 kts | 90° |
| 2026-05-07 22:08 | -29.22504 | 168.01920 | 2285 ft | 204 kts | 90° |
| 2026-05-07 22:08 | -29.22517 | 168.03512 | 2271 ft | 194 kts | 66° |
| 2026-05-07 22:08 | -29.21892 | 168.04812 | 2297 ft | 186 kts | 46° |
| 2026-05-07 22:08 | -29.21130 | 168.06024 | 2304 ft | 189 kts | 45° |
| 2026-05-07 22:09 | -29.20344 | 168.07240 | 2293 ft | 189 kts | 45° |
| 2026-05-07 22:09 | -29.19573 | 168.08407 | 2272 ft | 183 kts | 45° |
| 2026-05-07 22:09 | -29.18626 | 168.09283 | 2294 ft | 170 kts | 11° |
| 2026-05-07 22:09 | -29.17474 | 168.09408 | 2295 ft | 166 kts | 356° |
| 2026-05-07 22:10 | -29.16335 | 168.09409 | 2315 ft | 158 kts | 355° |
| 2026-05-07 22:10 | -29.15287 | 168.09399 | 2283 ft | 141 kts | 355° |
| 2026-05-07 22:10 | -29.14343 | 168.09388 | 2301 ft | 137 kts | 355° |
| 2026-05-07 22:10 | -29.13417 | 168.09344 | 2285 ft | 130 kts | 343° |
| 2026-05-07 22:11 | -29.12740 | 168.08709 | 2292 ft | 136 kts | 311° |
| 2026-05-07 22:11 | -29.12140 | 168.07872 | 2292 ft | 137 kts | 311° |
| 2026-05-07 22:11 | -29.11548 | 168.07036 | 2282 ft | 133 kts | 311° |
| 2026-05-07 22:11 | -29.10999 | 168.06188 | 2288 ft | 133 kts | 308° |
| 2026-05-07 22:12 | -29.10485 | 168.05300 | 2296 ft | 134 kts | 306° |
| 2026-05-07 22:12 | -29.09982 | 168.04402 | 2291 ft | 134 kts | 306° |
| 2026-05-07 22:12 | -29.09472 | 168.03486 | 2191 ft | 139 kts | 306° |
| 2026-05-07 22:12 | -29.08960 | 168.02561 | 2013 ft | 136 kts | 307° |
| 2026-05-07 22:13 | -29.08456 | 168.01659 | 1847 ft | 138 kts | 307° |
| 2026-05-07 22:13 | -29.07942 | 168.00730 | 1638 ft | 136 kts | 307° |
| 2026-05-07 22:13 | -29.07438 | 167.99821 | 1461 ft | 134 kts | 307° |
| 2026-05-07 22:13 | -29.06939 | 167.98919 | 1280 ft | 134 kts | 307° |
| 2026-05-07 22:14 | -29.06436 | 167.98016 | 1102 ft | 135 kts | 306° |
| 2026-05-07 22:14 | -29.05933 | 167.97099 | 952 ft | 137 kts | 306° |
| 2026-05-07 22:14 | -29.05417 | 167.96181 | 752 ft | 138 kts | 306° |
| 2026-05-07 22:14 | -29.04890 | 167.95212 | 555 ft | 145 kts | 309° |
| 2026-05-07 22:15 | -29.04350 | 167.94243 | 366 ft | 139 kts | 305° |
| 2026-05-07 22:15 | -29.03925 | 167.93484 | 338 ft | 83 kts | 302° |
| 2026-05-07 22:15 | -29.03731 | 167.93136 | 330 ft | 22 kts | 302° |
| 2026-05-07 22:15 | -29.03700 | 167.93035 | 326 ft | 12 kts | 274° |
| 2026-05-07 22:16 | -29.03668 | 167.93015 | 324 ft | 7 kts | 88° |
| 2026-05-07 22:16 | -29.03693 | 167.93067 | 324 ft | 9 kts | 122° |
| 2026-05-07 22:16 | -29.03739 | 167.93151 | 329 ft | 16 kts | 122° |
| 2026-05-07 22:16 | -29.03807 | 167.93274 | 332 ft | 19 kts | 122° |
| 2026-05-07 22:17 | -29.03878 | 167.93400 | 337 ft | 19 kts | 122° |
| 2026-05-07 22:17 | -29.03945 | 167.93521 | 348 ft | 18 kts | 123° |
| 2026-05-07 22:17 | -29.04012 | 167.93639 | 345 ft | 17 kts | 122° |
| 2026-05-07 22:17 | -29.04074 | 167.93754 | 352 ft | 17 kts | 122° |
| 2026-05-07 22:18 | -29.04135 | 167.93864 | 357 ft | 16 kts | 122° |
| 2026-05-07 22:18 | -29.04097 | 167.94075 | 359 ft | 15 kts | 49° |
| 2026-05-07 22:18 | -29.04074 | 167.94106 | 367 ft | 1 kts | 49° |
| 2026-05-07 22:19 | -29.04043 | 167.94148 | 365 ft | 12 kts | 50° |
| 2026-05-07 22:19 | -29.03968 | 167.94250 | 370 ft | 18 kts | 49° |
| 2026-05-07 22:19 | -29.03864 | 167.94319 | 374 ft | 18 kts | 11° |
| 2026-05-07 22:19 | -29.03746 | 167.94344 | 373 ft | 17 kts | 12° |
| 2026-05-07 22:20 | -29.03643 | 167.94369 | 370 ft | 8 kts | 12° |
| 2026-05-07 22:20 | -29.03605 | 167.94378 | 371 ft | 5 kts | 11° |
| 2026-05-07 22:20 | -29.03584 | 167.94370 | 371 ft | 2 kts | 323° |
| 2026-05-07 22:20 | -29.03576 | 167.94361 | 371 ft | 0 kts | 316° |